Lakeside, MT (59922)

6:18 AM MDT on September 05, 2015 (GMT -0600)
Lakeside | | Change Station
CLOSE
Current Station
Personal Weather Station
Location: Lakeside, MT
Elevation: 2930 ft
Nearby Weather Stations

Elev 2930 ft 48.02 °N, 114.23 °W | Updated 1 minute ago

Overcast
Overcast
50.5 °F
Feels Like 50.5 °F
N
0.0
Wind Variable Wind from WSW

Today
High -- | Low -- °F
--% Chance of Precip.
Yesterday
High -- | Low -- °F
Precip. -- in
7:00 AM 8:10 PM
Waning Gibbous, 49% visible
Pressure 29.86 in
Visibility 10.0 miles
Clouds Overcast 4800 ft
Dew Point 45 °F
Humidity 81%
Rainfall 0.00 in
Snow Depth Not available.
UV 0 out of 12
Pollen 2.50 out of 12
Air Quality Not available.
Flu Activity Not available.
METAR KMSO 051153Z 18005KT 10SM OVC048 10/08 A2987 RMK AO2 RAE53 SLP110 P0003 60006 70006 T01000083 10122 20100 53010
Pressure 29.86 in
Visibility 10.0 miles
Clouds Overcast 4800 ft
Dew Point 45 °F
Humidity 81%
Rainfall 0.00 in
Snow Depth Not available.
UV 0 out of 12
Pollen 2.50 out of 12
Air Quality Not available.
Flu Activity Not available.
METAR KMSO 051153Z 18005KT 10SM OVC048 10/08 A2987 RMK AO2 RAE53 SLP110 P0003 60006 70006 T01000083 10122 20100 53010

10-Day Weather Forecast

×

Almanac

Astronomy

Sep. 05, 2015 Rise Set
Actual Time
Civil Twilight
Nautical Twilight
Astronomical Twilight
Moon
Length of Visible Light
Length of Day
Tomorrow will be .
, % of the Moon is Illuminated

Today's Extremes

State Highs State Lows

Community

WunderPhotos

Upload Photos

1,852,455 photos uploaded!

WunderBlogs® & News

Nearby

Air Quality

  Air Quality AQ Index Pollutant
Not available.

Snow Depth

Station Depth Elevation

Earthquake Activity

City Distance Mag. Time & Date
Minimum magnitude displayed is 2.5.

Coastal Water Temperatures

Place Temperature

Stations

Nearby Weather Stations

Station Location Temp. Windchill Dew Point Humidity Wind Precip. Elev Updated Type